Terminal Aerodrome Forecast
Issued by NWS Tulsa, OK

Home | Current Version | Previous Version | Text Only | Print | Product List | Glossary On
Versions: 1 2 3 4 5 6 7 8 9 10 11 12 13 14 15
513
FTUS44 KTSA 240520
TAFFSM
TAF
KFSM 240520Z 2406/2506 07005KT P6SM BKN050
     FM240900 08005KT P6SM BKN030
     FM241200 08008KT P6SM OVC015
     FM241500 15008KT P6SM VCTS OVC015CB PROB30 2416/2422 5SM -TSRA
      OVC008CB
     FM242200 13010KT P6SM BKN050=

USA.gov is the U.S. government's official web portal to all federal, state and local government web resources and services.